Nome, AK

12:55 PM AKDT on October 01, 2014 (GMT -0800)
Dexter | Change Station
CLOSE
Current Station
Personal Weather Station
Location: Nome, AK
Elevation: 45 ft
Nearby Weather Stations

Elev 45 ft 64.58 °N, 165.27 °W | Updated 1 minute ago

Overcast
Overcast
47.1 °F
Feels Like 44 °F
N
6.0
Wind Variable Wind from NNE
Gusts 8.0 mph

Today
High -- | Low -- °F
--% Chance of Precip.
Yesterday
High -- | Low -- °F
Precip. -- in
9:11 AM 8:28 PM
Waxing Crescent, 51% visible
Pressure 30.24 in
Visibility 10.0 miles
Clouds Overcast 2100 ft
Windchill 44 °F
Dew Point 42 °F
Humidity 84%
Rainfall 0.00 in
Snow Depth 2 in , 6 in , 1 in
UV 0 out of 12
Pollen Not available.
Air Quality Not available.
Flu Activity Not available.
METAR PAOM 302053Z 26015KT 10SM OVC021 07/04 A3024 RMK SLP240 T00720044 53005 VIA AUTODIAL

More Conditions Fewer Conditions

Pressure 30.24 in
Visibility 10.0 miles
Clouds Overcast 2100 ft
Windchill 44 °F
Dew Point 42 °F
Humidity 84%
Rainfall 0.00 in
Snow Depth 2 in , 6 in , 1 in
UV 0 out of 12
Pollen Not available.
Air Quality Not available.
Flu Activity Not available.
METAR PAOM 302053Z 26015KT 10SM OVC021 07/04 A3024 RMK SLP240 T00720044 53005 VIA AUTODIAL

More Conditions Fewer Conditions

10-Day Weather Forecast

Almanac

Astronomy

Oct. 01, 2014 Rise Set
Actual Time 9:11 AM AKDT 8:28 PM AKDT
Civil Twilight 8:22 AM AKDT 9:16 PM AKDT
Nautical Twilight 7:25 AM AKDT 10:13 PM AKDT
Astronomical Twilight 6:23 AM AKDT 11:15 PM AKDT
Moon 5:59 PM AKDT No Moon Set
Length of Visible Light 12h 53m
Length of Day
11h 17m
Tomorrow will be 6m 34s shorter.
Waxing Crescent, 51% of the Moon is Illuminated
Today
Waxing Crescent
Oct 8
Full
Oct 15
Last Quarter
Oct 23
New
Oct 30
First Quarter

Today's Extremes

State Highs State Lows

Community

WunderPhotos

Upload Photos

1,758,043 photos uploaded!

WunderBlogs® & News

By Dr. Jeff Masters
Director of Meteorology, Weather Underground
By Kari Strenfel
Meteorologist, Weather Underground
By Christopher C. Burt
Weather Historian, Weather Underground
October 1, 2014
October 1, 2014
October 1, 2014

Nearby

Snow Depth

Station Depth Elevation
MF Bradley River 2 in 2300 ft
Grandview 6 in 1100 ft
Susitna Valley High 1 in 375 ft
Cooper Lake 1 in 1200 ft
Mt. Ryan 3 in 2800 ft

Earthquake Activity

City Distance Mag. Time & Date
No recent earthquake activity has been reported nearby.
Minimum magnitude displayed is 2.5.

Coastal Water Temperatures

Place Temperature
No Stations Reporting

Nearby Weather Stations